sensor_id;sensor_type;location;lat;lon;timestamp;P1;durP1;ratioP1;P2;durP2;ratioP2
70183;SDS011;57554;51.546;6.776;2023-07-31T00:00:13;6.28;;;2.05;;
70183;SDS011;57554;51.546;6.776;2023-07-31T00:02:38;8.70;;;2.40;;
70183;SDS011;57554;51.546;6.776;2023-07-31T00:05:04;11.43;;;3.30;;
70183;SDS011;57554;51.546;6.776;2023-07-31T00:07:31;8.77;;;3.25;;
70183;SDS011;57554;51.546;6.776;2023-07-31T00:09:57;11.57;;;4.13;;
70183;SDS011;57554;51.546;6.776;2023-07-31T00:12:23;12.85;;;4.07;;
70183;SDS011;57554;51.546;6.776;2023-07-31T00:14:49;10.27;;;4.45;;
70183;SDS011;57554;51.546;6.776;2023-07-31T00:17:14;16.27;;;4.72;;
70183;SDS011;57554;51.546;6.776;2023-07-31T00:19:41;14.70;;;4.45;;
70183;SDS011;57554;51.546;6.776;2023-07-31T00:22:07;17.08;;;4.70;;
70183;SDS011;57554;51.546;6.776;2023-07-31T00:24:32;14.07;;;4.72;;
70183;SDS011;57554;51.546;6.776;2023-07-31T00:26:58;16.88;;;4.70;;
70183;SDS011;57554;51.546;6.776;2023-07-31T00:29:23;16.95;;;5.70;;
70183;SDS011;57554;51.546;6.776;2023-07-31T00:31:49;13.27;;;4.80;;
70183;SDS011;57554;51.546;6.776;2023-07-31T00:34:14;16.60;;;5.05;;
70183;SDS011;57554;51.546;6.776;2023-07-31T00:36:40;18.27;;;5.85;;
70183;SDS011;57554;51.546;6.776;2023-07-31T00:39:06;18.38;;;5.50;;
70183;SDS011;57554;51.546;6.776;2023-07-31T00:41:31;14.20;;;5.25;;
70183;SDS011;57554;51.546;6.776;2023-07-31T00:43:57;16.77;;;5.15;;
70183;SDS011;57554;51.546;6.776;2023-07-31T00:46:22;24.45;;;6.05;;
70183;SDS011;57554;51.546;6.776;2023-07-31T00:48:48;17.90;;;6.20;;
70183;SDS011;57554;51.546;6.776;2023-07-31T00:51:14;21.35;;;5.65;;
70183;SDS011;57554;51.546;6.776;2023-07-31T00:53:40;21.45;;;5.80;;
70183;SDS011;57554;51.546;6.776;2023-07-31T00:56:06;22.65;;;5.45;;
70183;SDS011;57554;51.546;6.776;2023-07-31T00:58:31;14.23;;;5.00;;
70183;SDS011;57554;51.546;6.776;2023-07-31T01:00:57;21.67;;;6.07;;
70183;SDS011;57554;51.546;6.776;2023-07-31T01:03:23;19.98;;;6.00;;
70183;SDS011;57554;51.546;6.776;2023-07-31T01:05:56;17.33;;;5.80;;
70183;SDS011;57554;51.546;6.776;2023-07-31T01:08:48;14.32;;;5.18;;
70183;SDS011;57554;51.546;6.776;2023-07-31T01:11:26;20.02;;;5.90;;
70183;SDS011;57554;51.546;6.776;2023-07-31T01:13:54;19.45;;;5.28;;
70183;SDS011;57554;51.546;6.776;2023-07-31T01:16:20;12.93;;;4.95;;
70183;SDS011;57554;51.546;6.776;2023-07-31T01:18:46;13.48;;;4.82;;
70183;SDS011;57554;51.546;6.776;2023-07-31T01:26:49;17.20;;;5.43;;
70183;SDS011;57554;51.546;6.776;2023-07-31T01:29:32;15.15;;;4.85;;
70183;SDS011;57554;51.546;6.776;2023-07-31T01:32:08;15.23;;;4.50;;
70183;SDS011;57554;51.546;6.776;2023-07-31T01:34:35;18.13;;;4.53;;
70183;SDS011;57554;51.546;6.776;2023-07-31T01:37:02;16.23;;;4.90;;
70183;SDS011;57554;51.546;6.776;2023-07-31T01:39:28;12.27;;;4.47;;
70183;SDS011;57554;51.546;6.776;2023-07-31T01:41:53;16.35;;;5.03;;
70183;SDS011;57554;51.546;6.776;2023-07-31T01:44:19;17.67;;;4.68;;
70183;SDS011;57554;51.546;6.776;2023-07-31T01:46:45;16.05;;;4.47;;
70183;SDS011;57554;51.546;6.776;2023-07-31T01:49:10;11.32;;;4.10;;
70183;SDS011;57554;51.546;6.776;2023-07-31T01:51:36;15.93;;;4.60;;
70183;SDS011;57554;51.546;6.776;2023-07-31T01:54:01;20.52;;;5.10;;
70183;SDS011;57554;51.546;6.776;2023-07-31T01:56:27;12.45;;;4.15;;
70183;SDS011;57554;51.546;6.776;2023-07-31T01:58:53;21.10;;;4.93;;
70183;SDS011;57554;51.546;6.776;2023-07-31T02:01:18;16.83;;;4.20;;
70183;SDS011;57554;51.546;6.776;2023-07-31T02:03:44;16.55;;;4.25;;
70183;SDS011;57554;51.546;6.776;2023-07-31T02:06:09;14.57;;;4.15;;
70183;SDS011;57554;51.546;6.776;2023-07-31T02:08:35;13.63;;;4.40;;
70183;SDS011;57554;51.546;6.776;2023-07-31T02:11:01;19.55;;;4.68;;
70183;SDS011;57554;51.546;6.776;2023-07-31T02:13:26;12.77;;;3.95;;
70183;SDS011;57554;51.546;6.776;2023-07-31T02:15:52;16.55;;;4.70;;
70183;SDS011;57554;51.546;6.776;2023-07-31T02:18:17;19.45;;;4.05;;
70183;SDS011;57554;51.546;6.776;2023-07-31T02:20:43;20.73;;;4.10;;
70183;SDS011;57554;51.546;6.776;2023-07-31T02:23:11;18.98;;;4.43;;
70183;SDS011;57554;51.546;6.776;2023-07-31T02:25:36;14.70;;;4.53;;
70183;SDS011;57554;51.546;6.776;2023-07-31T02:28:02;15.85;;;4.35;;
70183;SDS011;57554;51.546;6.776;2023-07-31T02:30:27;13.45;;;4.15;;
70183;SDS011;57554;51.546;6.776;2023-07-31T02:32:53;14.63;;;4.85;;
70183;SDS011;57554;51.546;6.776;2023-07-31T02:35:19;13.05;;;3.88;;
70183;SDS011;57554;51.546;6.776;2023-07-31T02:37:44;14.60;;;4.70;;
70183;SDS011;57554;51.546;6.776;2023-07-31T02:40:10;15.82;;;4.68;;
70183;SDS011;57554;51.546;6.776;2023-07-31T02:42:36;13.45;;;4.88;;
70183;SDS011;57554;51.546;6.776;2023-07-31T02:45:01;14.50;;;4.43;;
70183;SDS011;57554;51.546;6.776;2023-07-31T02:47:27;17.70;;;4.10;;
70183;SDS011;57554;51.546;6.776;2023-07-31T02:49:53;16.83;;;3.90;;
70183;SDS011;57554;51.546;6.776;2023-07-31T02:52:18;16.33;;;4.38;;
70183;SDS011;57554;51.546;6.776;2023-07-31T02:54:44;15.85;;;5.00;;
70183;SDS011;57554;51.546;6.776;2023-07-31T02:57:10;14.80;;;4.30;;
70183;SDS011;57554;51.546;6.776;2023-07-31T02:59:35;14.73;;;3.97;;
70183;SDS011;57554;51.546;6.776;2023-07-31T03:02:01;15.60;;;4.22;;
70183;SDS011;57554;51.546;6.776;2023-07-31T03:04:27;15.25;;;4.10;;
70183;SDS011;57554;51.546;6.776;2023-07-31T03:06:52;12.60;;;4.15;;
70183;SDS011;57554;51.546;6.776;2023-07-31T03:09:18;16.25;;;4.43;;
70183;SDS011;57554;51.546;6.776;2023-07-31T03:11:43;16.95;;;4.00;;
70183;SDS011;57554;51.546;6.776;2023-07-31T03:14:09;15.90;;;3.85;;
70183;SDS011;57554;51.546;6.776;2023-07-31T03:16:34;15.43;;;3.97;;
70183;SDS011;57554;51.546;6.776;2023-07-31T03:19:00;14.73;;;4.35;;
70183;SDS011;57554;51.546;6.776;2023-07-31T03:21:25;13.13;;;3.55;;
70183;SDS011;57554;51.546;6.776;2023-07-31T03:23:51;13.98;;;4.43;;
70183;SDS011;57554;51.546;6.776;2023-07-31T03:26:17;17.13;;;4.50;;
70183;SDS011;57554;51.546;6.776;2023-07-31T03:28:42;15.10;;;4.30;;
70183;SDS011;57554;51.546;6.776;2023-07-31T03:31:08;16.85;;;4.57;;
70183;SDS011;57554;51.546;6.776;2023-07-31T03:33:33;14.10;;;4.88;;
70183;SDS011;57554;51.546;6.776;2023-07-31T03:35:59;15.50;;;4.13;;
70183;SDS011;57554;51.546;6.776;2023-07-31T03:38:25;15.52;;;4.63;;
70183;SDS011;57554;51.546;6.776;2023-07-31T03:40:50;16.10;;;4.97;;
70183;SDS011;57554;51.546;6.776;2023-07-31T03:43:16;19.15;;;4.28;;
70183;SDS011;57554;51.546;6.776;2023-07-31T03:45:41;14.10;;;4.60;;
70183;SDS011;57554;51.546;6.776;2023-07-31T03:48:07;17.20;;;4.72;;
70183;SDS011;57554;51.546;6.776;2023-07-31T03:50:33;21.75;;;5.38;;
70183;SDS011;57554;51.546;6.776;2023-07-31T03:52:59;20.38;;;4.60;;
70183;SDS011;57554;51.546;6.776;2023-07-31T03:55:24;17.95;;;4.18;;
70183;SDS011;57554;51.546;6.776;2023-07-31T03:57:50;20.50;;;4.60;;
70183;SDS011;57554;51.546;6.776;2023-07-31T04:00:15;15.23;;;4.32;;
70183;SDS011;57554;51.546;6.776;2023-07-31T04:02:41;14.18;;;4.60;;
70183;SDS011;57554;51.546;6.776;2023-07-31T04:05:07;12.43;;;4.50;;
70183;SDS011;57554;51.546;6.776;2023-07-31T04:07:32;13.82;;;4.10;;
70183;SDS011;57554;51.546;6.776;2023-07-31T04:09:59;16.27;;;4.75;;
70183;SDS011;57554;51.546;6.776;2023-07-31T04:12:25;14.02;;;4.30;;
70183;SDS011;57554;51.546;6.776;2023-07-31T04:14:51;12.93;;;4.25;;
70183;SDS011;57554;51.546;6.776;2023-07-31T04:17:19;14.27;;;4.25;;
70183;SDS011;57554;51.546;6.776;2023-07-31T04:19:44;19.55;;;4.78;;
70183;SDS011;57554;51.546;6.776;2023-07-31T04:22:10;16.88;;;4.63;;
70183;SDS011;57554;51.546;6.776;2023-07-31T04:24:36;14.80;;;4.75;;
70183;SDS011;57554;51.546;6.776;2023-07-31T04:27:01;19.48;;;4.32;;
70183;SDS011;57554;51.546;6.776;2023-07-31T04:29:27;15.98;;;4.45;;
70183;SDS011;57554;51.546;6.776;2023-07-31T04:31:52;15.32;;;4.50;;
70183;SDS011;57554;51.546;6.776;2023-07-31T04:34:18;16.02;;;4.50;;
70183;SDS011;57554;51.546;6.776;2023-07-31T04:36:43;14.50;;;4.63;;
70183;SDS011;57554;51.546;6.776;2023-07-31T04:39:09;13.50;;;4.40;;
70183;SDS011;57554;51.546;6.776;2023-07-31T04:41:34;13.35;;;4.60;;
70183;SDS011;57554;51.546;6.776;2023-07-31T04:44:00;14.25;;;4.50;;
70183;SDS011;57554;51.546;6.776;2023-07-31T04:46:26;17.92;;;4.68;;
70183;SDS011;57554;51.546;6.776;2023-07-31T04:48:52;18.20;;;4.80;;
70183;SDS011;57554;51.546;6.776;2023-07-31T04:51:17;13.45;;;4.43;;
70183;SDS011;57554;51.546;6.776;2023-07-31T04:53:43;18.15;;;4.45;;
70183;SDS011;57554;51.546;6.776;2023-07-31T04:56:09;13.73;;;4.40;;
70183;SDS011;57554;51.546;6.776;2023-07-31T04:58:34;15.20;;;4.97;;
70183;SDS011;57554;51.546;6.776;2023-07-31T05:01:00;17.70;;;4.70;;
70183;SDS011;57554;51.546;6.776;2023-07-31T05:03:25;11.98;;;4.40;;
70183;SDS011;57554;51.546;6.776;2023-07-31T05:05:51;14.18;;;4.20;;
70183;SDS011;57554;51.546;6.776;2023-07-31T05:08:16;14.40;;;4.63;;
70183;SDS011;57554;51.546;6.776;2023-07-31T05:10:45;13.88;;;4.80;;
70183;SDS011;57554;51.546;6.776;2023-07-31T05:13:10;17.77;;;5.63;;
70183;SDS011;57554;51.546;6.776;2023-07-31T05:15:36;16.02;;;4.60;;
70183;SDS011;57554;51.546;6.776;2023-07-31T05:18:01;16.98;;;4.53;;
70183;SDS011;57554;51.546;6.776;2023-07-31T05:20:27;16.45;;;5.30;;
70183;SDS011;57554;51.546;6.776;2023-07-31T05:22:53;11.45;;;3.90;;
70183;SDS011;57554;51.546;6.776;2023-07-31T05:25:18;15.40;;;5.10;;
70183;SDS011;57554;51.546;6.776;2023-07-31T05:27:44;14.00;;;4.60;;
70183;SDS011;57554;51.546;6.776;2023-07-31T05:30:09;13.02;;;4.40;;
70183;SDS011;57554;51.546;6.776;2023-07-31T05:32:35;18.60;;;5.75;;
70183;SDS011;57554;51.546;6.776;2023-07-31T05:35:01;17.20;;;5.40;;
70183;SDS011;57554;51.546;6.776;2023-07-31T05:37:26;18.85;;;5.15;;
70183;SDS011;57554;51.546;6.776;2023-07-31T05:39:52;16.48;;;5.60;;
70183;SDS011;57554;51.546;6.776;2023-07-31T05:42:18;14.27;;;5.30;;
70183;SDS011;57554;51.546;6.776;2023-07-31T05:44:43;16.95;;;5.50;;
70183;SDS011;57554;51.546;6.776;2023-07-31T05:47:09;20.48;;;5.20;;
70183;SDS011;57554;51.546;6.776;2023-07-31T05:49:34;14.98;;;4.75;;
70183;SDS011;57554;51.546;6.776;2023-07-31T05:52:00;17.92;;;5.22;;
70183;SDS011;57554;51.546;6.776;2023-07-31T05:54:25;13.82;;;5.05;;
70183;SDS011;57554;51.546;6.776;2023-07-31T05:56:51;12.57;;;5.07;;
70183;SDS011;57554;51.546;6.776;2023-07-31T05:59:17;12.38;;;5.20;;
70183;SDS011;57554;51.546;6.776;2023-07-31T06:01:42;12.55;;;4.85;;
70183;SDS011;57554;51.546;6.776;2023-07-31T06:04:08;16.30;;;5.70;;
70183;SDS011;57554;51.546;6.776;2023-07-31T06:06:33;15.00;;;5.55;;
70183;SDS011;57554;51.546;6.776;2023-07-31T06:09:00;13.35;;;5.13;;
70183;SDS011;57554;51.546;6.776;2023-07-31T06:11:25;13.88;;;5.22;;
70183;SDS011;57554;51.546;6.776;2023-07-31T06:13:51;15.45;;;5.95;;
70183;SDS011;57554;51.546;6.776;2023-07-31T06:16:16;14.15;;;5.13;;
70183;SDS011;57554;51.546;6.776;2023-07-31T06:18:42;15.32;;;5.30;;
70183;SDS011;57554;51.546;6.776;2023-07-31T06:21:08;17.80;;;5.43;;
70183;SDS011;57554;51.546;6.776;2023-07-31T06:23:34;15.43;;;5.57;;
70183;SDS011;57554;51.546;6.776;2023-07-31T06:26:00;13.85;;;5.15;;
70183;SDS011;57554;51.546;6.776;2023-07-31T06:28:29;15.10;;;6.65;;
70183;SDS011;57554;51.546;6.776;2023-07-31T06:30:55;16.27;;;6.97;;
70183;SDS011;57554;51.546;6.776;2023-07-31T06:33:21;15.35;;;6.22;;
70183;SDS011;57554;51.546;6.776;2023-07-31T06:35:46;19.20;;;7.22;;
70183;SDS011;57554;51.546;6.776;2023-07-31T06:38:12;14.18;;;6.45;;
70183;SDS011;57554;51.546;6.776;2023-07-31T06:40:37;13.55;;;6.30;;
70183;SDS011;57554;51.546;6.776;2023-07-31T06:43:03;14.02;;;5.90;;
70183;SDS011;57554;51.546;6.776;2023-07-31T06:45:33;12.88;;;5.30;;
70183;SDS011;57554;51.546;6.776;2023-07-31T06:48:00;12.27;;;5.22;;
70183;SDS011;57554;51.546;6.776;2023-07-31T06:50:26;11.65;;;4.90;;
70183;SDS011;57554;51.546;6.776;2023-07-31T06:52:56;12.00;;;4.80;;
70183;SDS011;57554;51.546;6.776;2023-07-31T06:55:22;17.05;;;5.95;;
70183;SDS011;57554;51.546;6.776;2023-07-31T06:57:53;16.08;;;5.25;;
70183;SDS011;57554;51.546;6.776;2023-07-31T07:00:20;12.90;;;5.25;;
70183;SDS011;57554;51.546;6.776;2023-07-31T07:02:48;13.32;;;5.03;;
70183;SDS011;57554;51.546;6.776;2023-07-31T07:05:14;13.77;;;4.85;;
70183;SDS011;57554;51.546;6.776;2023-07-31T07:07:41;13.65;;;5.25;;
70183;SDS011;57554;51.546;6.776;2023-07-31T07:10:06;12.68;;;4.90;;
70183;SDS011;57554;51.546;6.776;2023-07-31T07:12:33;11.13;;;4.65;;
70183;SDS011;57554;51.546;6.776;2023-07-31T07:15:00;11.48;;;4.50;;
70183;SDS011;57554;51.546;6.776;2023-07-31T07:17:26;13.23;;;5.18;;
70183;SDS011;57554;51.546;6.776;2023-07-31T07:19:53;13.27;;;4.38;;
70183;SDS011;57554;51.546;6.776;2023-07-31T07:22:22;11.43;;;5.18;;
70183;SDS011;57554;51.546;6.776;2023-07-31T07:24:48;12.10;;;4.88;;
70183;SDS011;57554;51.546;6.776;2023-07-31T07:27:13;10.88;;;4.40;;
70183;SDS011;57554;51.546;6.776;2023-07-31T07:29:39;15.48;;;4.32;;
70183;SDS011;57554;51.546;6.776;2023-07-31T07:32:05;11.75;;;4.93;;
70183;SDS011;57554;51.546;6.776;2023-07-31T07:34:31;16.67;;;5.10;;
70183;SDS011;57554;51.546;6.776;2023-07-31T07:36:56;12.20;;;4.43;;
70183;SDS011;57554;51.546;6.776;2023-07-31T07:39:22;12.20;;;5.20;;
70183;SDS011;57554;51.546;6.776;2023-07-31T07:41:47;11.32;;;5.47;;
70183;SDS011;57554;51.546;6.776;2023-07-31T07:44:13;13.05;;;4.95;;
70183;SDS011;57554;51.546;6.776;2023-07-31T07:46:39;10.77;;;4.88;;
70183;SDS011;57554;51.546;6.776;2023-07-31T07:49:05;13.32;;;5.28;;
70183;SDS011;57554;51.546;6.776;2023-07-31T07:51:30;11.57;;;4.70;;
70183;SDS011;57554;51.546;6.776;2023-07-31T07:53:56;10.32;;;4.10;;
70183;SDS011;57554;51.546;6.776;2023-07-31T07:56:27;9.68;;;3.70;;
70183;SDS011;57554;51.546;6.776;2023-07-31T07:58:53;9.18;;;3.90;;
70183;SDS011;57554;51.546;6.776;2023-07-31T08:01:19;8.05;;;3.45;;
70183;SDS011;57554;51.546;6.776;2023-07-31T08:03:45;8.57;;;3.20;;
70183;SDS011;57554;51.546;6.776;2023-07-31T08:06:11;11.82;;;3.22;;
70183;SDS011;57554;51.546;6.776;2023-07-31T08:35:32;9.77;;;3.08;;
70183;SDS011;57554;51.546;6.776;2023-07-31T08:37:57;10.23;;;3.63;;
70183;SDS011;57554;51.546;6.776;2023-07-31T13:42:44;8.75;;;4.13;;
70183;SDS011;57554;51.546;6.776;2023-07-31T13:45:11;10.77;;;4.07;;
70183;SDS011;57554;51.546;6.776;2023-07-31T13:47:37;9.10;;;3.75;;
70183;SDS011;57554;51.546;6.776;2023-07-31T13:50:03;8.65;;;4.10;;
70183;SDS011;57554;51.546;6.776;2023-07-31T13:52:28;8.73;;;4.13;;
70183;SDS011;57554;51.546;6.776;2023-07-31T13:54:54;11.57;;;4.43;;
70183;SDS011;57554;51.546;6.776;2023-07-31T13:57:19;9.57;;;3.70;;
70183;SDS011;57554;51.546;6.776;2023-07-31T13:59:45;7.80;;;3.90;;
70183;SDS011;57554;51.546;6.776;2023-07-31T14:02:11;10.75;;;4.13;;
70183;SDS011;57554;51.546;6.776;2023-07-31T14:04:36;11.70;;;4.45;;
70183;SDS011;57554;51.546;6.776;2023-07-31T14:07:02;16.98;;;5.13;;
70183;SDS011;57554;51.546;6.776;2023-07-31T14:09:29;13.85;;;4.68;;
70183;SDS011;57554;51.546;6.776;2023-07-31T14:11:55;21.00;;;5.80;;
70183;SDS011;57554;51.546;6.776;2023-07-31T14:14:20;9.27;;;4.20;;
70183;SDS011;57554;51.546;6.776;2023-07-31T14:16:46;10.02;;;4.38;;
70183;SDS011;57554;51.546;6.776;2023-07-31T14:19:11;15.02;;;4.65;;
70183;SDS011;57554;51.546;6.776;2023-07-31T14:21:37;10.23;;;4.95;;
70183;SDS011;57554;51.546;6.776;2023-07-31T14:24:03;11.80;;;4.95;;
70183;SDS011;57554;51.546;6.776;2023-07-31T14:26:28;9.82;;;4.03;;
70183;SDS011;57554;51.546;6.776;2023-07-31T14:28:54;10.77;;;4.32;;
70183;SDS011;57554;51.546;6.776;2023-07-31T14:31:19;14.43;;;4.63;;
70183;SDS011;57554;51.546;6.776;2023-07-31T14:33:45;13.20;;;4.53;;
70183;SDS011;57554;51.546;6.776;2023-07-31T14:36:10;11.90;;;4.65;;
70183;SDS011;57554;51.546;6.776;2023-07-31T14:38:36;11.45;;;4.70;;
70183;SDS011;57554;51.546;6.776;2023-07-31T14:41:02;10.52;;;4.53;;
70183;SDS011;57554;51.546;6.776;2023-07-31T14:43:27;13.70;;;5.88;;
70183;SDS011;57554;51.546;6.776;2023-07-31T14:45:53;15.40;;;5.13;;
70183;SDS011;57554;51.546;6.776;2023-07-31T14:48:20;11.57;;;5.00;;
70183;SDS011;57554;51.546;6.776;2023-07-31T14:50:46;13.18;;;4.72;;
70183;SDS011;57554;51.546;6.776;2023-07-31T14:53:11;11.10;;;4.80;;
70183;SDS011;57554;51.546;6.776;2023-07-31T14:55:37;13.88;;;4.65;;
70183;SDS011;57554;51.546;6.776;2023-07-31T14:58:03;11.52;;;5.28;;
70183;SDS011;57554;51.546;6.776;2023-07-31T15:00:28;12.02;;;5.40;;
70183;SDS011;57554;51.546;6.776;2023-07-31T15:02:54;11.30;;;4.72;;
70183;SDS011;57554;51.546;6.776;2023-07-31T15:05:19;12.38;;;5.30;;
70183;SDS011;57554;51.546;6.776;2023-07-31T15:07:45;9.07;;;4.65;;
70183;SDS011;57554;51.546;6.776;2023-07-31T15:10:11;13.63;;;5.60;;
70183;SDS011;57554;51.546;6.776;2023-07-31T15:12:36;12.18;;;5.63;;
70183;SDS011;57554;51.546;6.776;2023-07-31T15:15:03;11.30;;;4.63;;
70183;SDS011;57554;51.546;6.776;2023-07-31T15:17:29;12.95;;;5.18;;
70183;SDS011;57554;51.546;6.776;2023-07-31T15:19:55;15.40;;;4.75;;
70183;SDS011;57554;51.546;6.776;2023-07-31T15:22:20;12.60;;;5.57;;
70183;SDS011;57554;51.546;6.776;2023-07-31T15:24:46;11.75;;;4.95;;
70183;SDS011;57554;51.546;6.776;2023-07-31T15:27:13;9.65;;;4.55;;
70183;SDS011;57554;51.546;6.776;2023-07-31T15:29:39;10.55;;;4.75;;
70183;SDS011;57554;51.546;6.776;2023-07-31T15:32:05;11.90;;;4.13;;
70183;SDS011;57554;51.546;6.776;2023-07-31T15:34:31;8.93;;;4.47;;
70183;SDS011;57554;51.546;6.776;2023-07-31T15:36:57;10.18;;;4.97;;
70183;SDS011;57554;51.546;6.776;2023-07-31T15:39:22;10.93;;;4.22;;
70183;SDS011;57554;51.546;6.776;2023-07-31T15:41:48;9.35;;;4.22;;
70183;SDS011;57554;51.546;6.776;2023-07-31T15:44:13;11.90;;;4.40;;
70183;SDS011;57554;51.546;6.776;2023-07-31T15:46:39;13.70;;;4.40;;
70183;SDS011;57554;51.546;6.776;2023-07-31T15:49:04;10.32;;;4.50;;
70183;SDS011;57554;51.546;6.776;2023-07-31T15:51:30;14.40;;;4.95;;
70183;SDS011;57554;51.546;6.776;2023-07-31T15:53:56;10.73;;;4.47;;
70183;SDS011;57554;51.546;6.776;2023-07-31T15:56:21;8.88;;;4.55;;
70183;SDS011;57554;51.546;6.776;2023-07-31T15:58:47;9.13;;;4.50;;
70183;SDS011;57554;51.546;6.776;2023-07-31T16:01:12;11.48;;;4.80;;
70183;SDS011;57554;51.546;6.776;2023-07-31T16:03:38;11.30;;;4.38;;
70183;SDS011;57554;51.546;6.776;2023-07-31T16:06:03;13.52;;;5.07;;
70183;SDS011;57554;51.546;6.776;2023-07-31T16:08:29;10.55;;;4.72;;
70183;SDS011;57554;51.546;6.776;2023-07-31T16:10:54;12.10;;;5.32;;
70183;SDS011;57554;51.546;6.776;2023-07-31T16:13:21;14.30;;;5.70;;
70183;SDS011;57554;51.546;6.776;2023-07-31T16:15:46;15.18;;;7.03;;
70183;SDS011;57554;51.546;6.776;2023-07-31T16:18:12;13.10;;;5.85;;
70183;SDS011;57554;51.546;6.776;2023-07-31T16:20:37;14.50;;;6.80;;
70183;SDS011;57554;51.546;6.776;2023-07-31T16:23:03;16.20;;;7.70;;
70183;SDS011;57554;51.546;6.776;2023-07-31T16:25:29;18.65;;;7.32;;
70183;SDS011;57554;51.546;6.776;2023-07-31T16:27:54;16.13;;;6.95;;
70183;SDS011;57554;51.546;6.776;2023-07-31T16:30:20;20.88;;;8.68;;
70183;SDS011;57554;51.546;6.776;2023-07-31T16:32:46;20.17;;;9.20;;
70183;SDS011;57554;51.546;6.776;2023-07-31T16:35:14;23.85;;;9.02;;
70183;SDS011;57554;51.546;6.776;2023-07-31T16:37:40;18.67;;;8.90;;
70183;SDS011;57554;51.546;6.776;2023-07-31T16:40:06;19.42;;;7.50;;
70183;SDS011;57554;51.546;6.776;2023-07-31T16:42:32;23.15;;;8.85;;
70183;SDS011;57554;51.546;6.776;2023-07-31T16:44:59;17.00;;;8.18;;
70183;SDS011;57554;51.546;6.776;2023-07-31T16:47:24;17.77;;;8.07;;
70183;SDS011;57554;51.546;6.776;2023-07-31T16:49:50;20.08;;;8.95;;
70183;SDS011;57554;51.546;6.776;2023-07-31T16:52:16;21.75;;;8.50;;
70183;SDS011;57554;51.546;6.776;2023-07-31T16:54:42;21.35;;;8.18;;
70183;SDS011;57554;51.546;6.776;2023-07-31T16:57:08;15.10;;;6.95;;
70183;SDS011;57554;51.546;6.776;2023-07-31T16:59:33;18.42;;;7.78;;
70183;SDS011;57554;51.546;6.776;2023-07-31T17:01:59;15.43;;;7.70;;
70183;SDS011;57554;51.546;6.776;2023-07-31T17:04:24;17.85;;;6.90;;
70183;SDS011;57554;51.546;6.776;2023-07-31T17:06:50;17.55;;;6.30;;
70183;SDS011;57554;51.546;6.776;2023-07-31T17:09:15;16.52;;;6.85;;
70183;SDS011;57554;51.546;6.776;2023-07-31T17:11:41;15.70;;;5.82;;
70183;SDS011;57554;51.546;6.776;2023-07-31T17:14:07;10.98;;;5.00;;
70183;SDS011;57554;51.546;6.776;2023-07-31T17:16:35;9.95;;;4.38;;
70183;SDS011;57554;51.546;6.776;2023-07-31T17:19:01;11.02;;;4.35;;
70183;SDS011;57554;51.546;6.776;2023-07-31T17:21:27;12.27;;;5.20;;
70183;SDS011;57554;51.546;6.776;2023-07-31T17:23:53;16.33;;;6.38;;
70183;SDS011;57554;51.546;6.776;2023-07-31T17:26:19;12.00;;;5.63;;
70183;SDS011;57554;51.546;6.776;2023-07-31T17:28:45;19.85;;;5.97;;
70183;SDS011;57554;51.546;6.776;2023-07-31T17:31:11;18.50;;;5.32;;
70183;SDS011;57554;51.546;6.776;2023-07-31T17:33:37;17.60;;;5.82;;
70183;SDS011;57554;51.546;6.776;2023-07-31T17:36:06;14.00;;;6.15;;
70183;SDS011;57554;51.546;6.776;2023-07-31T17:38:32;23.73;;;6.00;;
70183;SDS011;57554;51.546;6.776;2023-07-31T17:40:57;13.48;;;5.82;;
70183;SDS011;57554;51.546;6.776;2023-07-31T17:43:23;18.77;;;6.50;;
70183;SDS011;57554;51.546;6.776;2023-07-31T17:45:49;18.13;;;6.10;;
70183;SDS011;57554;51.546;6.776;2023-07-31T17:48:15;14.50;;;6.28;;
70183;SDS011;57554;51.546;6.776;2023-07-31T17:50:41;15.45;;;6.20;;
70183;SDS011;57554;51.546;6.776;2023-07-31T17:53:06;12.73;;;4.95;;
70183;SDS011;57554;51.546;6.776;2023-07-31T17:55:32;17.67;;;6.07;;
70183;SDS011;57554;51.546;6.776;2023-07-31T17:57:58;11.90;;;5.20;;
70183;SDS011;57554;51.546;6.776;2023-07-31T18:00:23;15.43;;;5.75;;
70183;SDS011;57554;51.546;6.776;2023-07-31T18:02:49;13.80;;;5.82;;
70183;SDS011;57554;51.546;6.776;2023-07-31T18:05:14;16.98;;;6.70;;
70183;SDS011;57554;51.546;6.776;2023-07-31T18:07:40;14.50;;;7.72;;
70183;SDS011;57554;51.546;6.776;2023-07-31T18:10:06;18.77;;;8.77;;
70183;SDS011;57554;51.546;6.776;2023-07-31T18:12:36;15.23;;;7.53;;
70183;SDS011;57554;51.546;6.776;2023-07-31T18:15:02;16.55;;;7.00;;
70183;SDS011;57554;51.546;6.776;2023-07-31T18:17:29;23.77;;;8.88;;
70183;SDS011;57554;51.546;6.776;2023-07-31T18:19:54;15.18;;;6.82;;
70183;SDS011;57554;51.546;6.776;2023-07-31T18:22:20;18.10;;;6.28;;
70183;SDS011;57554;51.546;6.776;2023-07-31T18:24:46;16.95;;;8.38;;
70183;SDS011;57554;51.546;6.776;2023-07-31T18:27:11;15.90;;;7.22;;
70183;SDS011;57554;51.546;6.776;2023-07-31T18:29:39;16.50;;;7.40;;
70183;SDS011;57554;51.546;6.776;2023-07-31T18:32:05;15.43;;;6.85;;
70183;SDS011;57554;51.546;6.776;2023-07-31T18:34:31;19.30;;;9.40;;
70183;SDS011;57554;51.546;6.776;2023-07-31T18:36:57;23.98;;;10.00;;
70183;SDS011;57554;51.546;6.776;2023-07-31T18:39:23;18.80;;;9.20;;
70183;SDS011;57554;51.546;6.776;2023-07-31T18:41:48;19.35;;;8.80;;
70183;SDS011;57554;51.546;6.776;2023-07-31T18:44:14;19.95;;;7.97;;
70183;SDS011;57554;51.546;6.776;2023-07-31T18:46:39;15.57;;;7.65;;
70183;SDS011;57554;51.546;6.776;2023-07-31T18:49:05;17.95;;;7.45;;
70183;SDS011;57554;51.546;6.776;2023-07-31T18:51:30;14.10;;;5.97;;
70183;SDS011;57554;51.546;6.776;2023-07-31T18:54:00;11.90;;;5.57;;
70183;SDS011;57554;51.546;6.776;2023-07-31T18:56:26;14.45;;;5.60;;
70183;SDS011;57554;51.546;6.776;2023-07-31T18:58:52;14.73;;;6.10;;
70183;SDS011;57554;51.546;6.776;2023-07-31T19:01:18;13.98;;;7.60;;
70183;SDS011;57554;51.546;6.776;2023-07-31T19:03:44;18.52;;;5.85;;
70183;SDS011;57554;51.546;6.776;2023-07-31T19:06:09;13.85;;;5.97;;
70183;SDS011;57554;51.546;6.776;2023-07-31T19:08:35;11.75;;;5.47;;
70183;SDS011;57554;51.546;6.776;2023-07-31T19:11:01;16.23;;;5.90;;
70183;SDS011;57554;51.546;6.776;2023-07-31T19:13:26;12.38;;;5.07;;
70183;SDS011;57554;51.546;6.776;2023-07-31T19:15:52;13.13;;;5.07;;
70183;SDS011;57554;51.546;6.776;2023-07-31T19:18:18;13.60;;;5.72;;
70183;SDS011;57554;51.546;6.776;2023-07-31T19:20:44;11.80;;;5.53;;
70183;SDS011;57554;51.546;6.776;2023-07-31T19:23:10;10.02;;;4.75;;
70183;SDS011;57554;51.546;6.776;2023-07-31T19:25:35;10.30;;;4.05;;
70183;SDS011;57554;51.546;6.776;2023-07-31T19:28:01;9.73;;;4.18;;
70183;SDS011;57554;51.546;6.776;2023-07-31T19:30:27;13.90;;;4.22;;
70183;SDS011;57554;51.546;6.776;2023-07-31T19:32:52;14.13;;;7.20;;
70183;SDS011;57554;51.546;6.776;2023-07-31T19:35:18;19.00;;;10.27;;
70183;SDS011;57554;51.546;6.776;2023-07-31T19:37:44;19.70;;;7.97;;
70183;SDS011;57554;51.546;6.776;2023-07-31T19:40:10;15.50;;;7.85;;
70183;SDS011;57554;51.546;6.776;2023-07-31T19:42:35;14.18;;;5.53;;
70183;SDS011;57554;51.546;6.776;2023-07-31T19:45:04;13.88;;;4.70;;
70183;SDS011;57554;51.546;6.776;2023-07-31T19:47:31;13.93;;;5.63;;
70183;SDS011;57554;51.546;6.776;2023-07-31T19:49:57;9.25;;;4.13;;
70183;SDS011;57554;51.546;6.776;2023-07-31T19:52:23;12.98;;;5.20;;
70183;SDS011;57554;51.546;6.776;2023-07-31T19:54:49;13.23;;;5.60;;
70183;SDS011;57554;51.546;6.776;2023-07-31T19:57:14;13.02;;;5.10;;
70183;SDS011;57554;51.546;6.776;2023-07-31T19:59:40;10.38;;;3.85;;
70183;SDS011;57554;51.546;6.776;2023-07-31T20:02:06;10.73;;;4.07;;